createdAt,value
2019-02-05T00:01:01.662Z,13.27
2019-02-05T00:03:07.461Z,20.93
2019-02-05T00:05:11.430Z,13.80
2019-02-05T00:07:15.294Z,14.30
2019-02-05T00:09:19.209Z,17.43
2019-02-05T00:11:23.145Z,17.13
2019-02-05T00:13:27.039Z,15.67
2019-02-05T00:15:30.960Z,16.60
2019-02-05T00:17:34.826Z,17.20
2019-02-05T00:19:38.753Z,17.70
2019-02-05T00:21:42.631Z,17.10
2019-02-05T00:23:46.542Z,16.93
2019-02-05T00:25:50.430Z,18.00
2019-02-05T00:27:54.301Z,18.80
2019-02-05T00:29:58.342Z,18.67
2019-02-05T00:32:02.189Z,18.67
2019-02-05T00:34:06.050Z,17.40
2019-02-05T00:36:09.934Z,18.17
2019-02-05T00:38:13.817Z,19.20
2019-02-05T00:40:17.856Z,20.90
2019-02-05T00:42:21.753Z,15.93
2019-02-05T00:44:25.616Z,16.13
2019-02-05T00:46:29.482Z,19.23
2019-02-05T00:48:33.499Z,20.07
2019-02-05T00:50:37.338Z,15.13
2019-02-05T00:52:41.187Z,18.13
2019-02-05T00:54:45.092Z,15.77
2019-02-05T00:56:48.981Z,18.07
2019-02-05T00:58:52.878Z,17.57
2019-02-05T01:00:56.742Z,20.07
2019-02-05T01:03:00.662Z,15.03
2019-02-05T01:05:06.163Z,17.47
2019-02-05T01:07:10.033Z,18.63
2019-02-05T01:09:13.918Z,18.33
2019-02-05T01:11:18.171Z,22.37
2019-02-05T01:13:22.046Z,18.07
2019-02-05T01:15:26.770Z,19.43
2019-02-05T01:17:30.695Z,21.80
2019-02-05T01:19:34.588Z,16.70
2019-02-05T01:21:39.276Z,20.13
2019-02-05T01:23:43.168Z,15.07
2019-02-05T01:25:47.061Z,18.93
2019-02-05T01:27:51.418Z,24.17
2019-02-05T01:29:55.669Z,24.63
2019-02-05T01:32:00.092Z,23.50
2019-02-05T01:34:03.926Z,22.97
2019-02-05T01:36:07.832Z,23.33
2019-02-05T01:38:11.700Z,27.23
2019-02-05T01:40:18.317Z,25.20
2019-02-05T01:42:22.258Z,27.87
2019-02-05T01:44:26.124Z,22.23
2019-02-05T01:46:30.011Z,24.60
2019-02-05T01:48:33.902Z,29.73
2019-02-05T01:50:37.781Z,20.40
2019-02-05T01:52:41.870Z,23.33
2019-02-05T01:54:45.730Z,25.37
2019-02-05T01:56:49.620Z,27.13
2019-02-05T01:58:53.493Z,29.47
2019-02-05T02:00:57.417Z,25.47
2019-02-05T02:03:02.068Z,23.37
2019-02-05T02:05:07.000Z,27.22
2019-02-05T02:07:10.904Z,26.47
2019-02-05T02:09:14.773Z,26.30
2019-02-05T02:11:18.618Z,28.27
2019-02-05T02:13:23.210Z,24.10
2019-02-05T02:15:27.089Z,23.73
2019-02-05T02:17:30.973Z,32.53
2019-02-05T02:19:35.458Z,20.63
2019-02-05T02:21:39.357Z,26.30
2019-02-05T02:23:43.522Z,28.43
2019-02-05T02:25:47.425Z,26.07
2019-02-05T02:27:51.735Z,29.63
2019-02-05T02:29:55.643Z,33.03
2019-02-05T02:31:59.566Z,29.23
2019-02-05T02:34:04.062Z,31.33
2019-02-05T02:36:07.995Z,31.30
2019-02-05T02:38:11.888Z,30.90
2019-02-05T02:40:15.793Z,27.07
2019-02-05T02:42:19.689Z,38.03
2019-02-05T02:44:23.896Z,37.67
2019-02-05T02:46:34.981Z,37.33
2019-02-05T02:48:39.316Z,41.97
2019-02-05T02:50:43.174Z,33.23
2019-02-05T02:52:47.105Z,28.93
2019-02-05T02:54:51.093Z,38.97
2019-02-05T02:57:04.579Z,42.07
2019-02-05T02:59:02.146Z,42.17
2019-02-05T03:01:06.944Z,42.00
2019-02-05T03:03:10.830Z,36.77
2019-02-05T03:05:16.935Z,42.90
2019-02-05T03:07:21.237Z,38.13
2019-02-05T03:09:25.131Z,40.53
2019-02-05T03:11:29.039Z,32.77
2019-02-05T03:13:32.954Z,41.93
2019-02-05T03:15:36.801Z,44.10
2019-02-05T03:17:40.664Z,38.00
2019-02-05T03:19:44.560Z,42.70
2019-02-05T03:21:48.438Z,43.83
2019-02-05T03:23:52.381Z,42.30
2019-02-05T03:25:56.671Z,44.97
2019-02-05T03:28:00.534Z,47.03
2019-02-05T03:30:10.123Z,46.87
2019-02-05T03:32:13.991Z,51.23
2019-02-05T03:34:17.998Z,42.53
2019-02-05T03:36:22.482Z,34.10
2019-02-05T03:38:26.575Z,44.03
2019-02-05T03:40:34.797Z,47.37
2019-02-05T03:42:38.832Z,51.97
2019-02-05T03:44:42.930Z,46.67
2019-02-05T03:46:47.465Z,56.63
2019-02-05T03:48:51.640Z,47.10
2019-02-05T03:51:16.802Z,44.80
2019-02-05T03:53:43.232Z,51.23
2019-02-05T03:56:12.403Z,44.40
2019-02-05T03:58:25.448Z,60.33
2019-02-05T04:00:41.057Z,57.47
2019-02-05T04:02:57.010Z,43.10
2019-02-05T04:05:15.844Z,42.87
2019-02-05T04:07:34.451Z,50.87
2019-02-05T04:09:50.048Z,58.60
2019-02-05T04:12:12.202Z,55.13
2019-02-05T04:14:24.860Z,46.87
2019-02-05T04:17:00.330Z,50.17
2019-02-05T04:19:28.397Z,46.27
2019-02-05T04:22:00.855Z,48.87
2019-02-05T04:24:10.702Z,45.43
2019-02-05T04:26:20.198Z,49.03
2019-02-05T04:28:41.930Z,39.83
2019-02-05T04:30:51.598Z,44.10
2019-02-05T04:33:04.618Z,47.53
2019-02-05T04:35:31.430Z,46.70
2019-02-05T04:37:58.692Z,54.00
2019-02-05T04:40:37.376Z,68.07
2019-02-05T04:42:49.816Z,40.87
2019-02-05T04:45:14.507Z,47.70
2019-02-05T04:47:30.034Z,49.73
2019-02-05T04:49:51.917Z,51.30
2019-02-05T04:52:04.639Z,56.20
2019-02-05T04:54:46.442Z,57.73
2019-02-05T04:57:20.566Z,58.20
2019-02-05T04:59:36.092Z,57.73
2019-02-05T05:01:51.944Z,64.87
2019-02-05T05:04:13.871Z,61.07
2019-02-05T05:06:25.917Z,57.97
2019-02-05T05:08:58.836Z,63.47
2019-02-05T05:11:02.724Z,67.17
2019-02-05T05:13:07.001Z,60.40
2019-02-05T05:15:11.381Z,66.27
2019-02-05T05:17:15.255Z,74.53
2019-02-05T05:19:19.229Z,57.70
2019-02-05T05:21:23.130Z,65.20
2019-02-05T05:23:27.434Z,59.60
2019-02-05T05:25:31.420Z,57.97
2019-02-05T05:27:35.407Z,62.17
2019-02-05T05:29:39.262Z,69.50
2019-02-05T05:31:43.175Z,53.40
2019-02-05T05:33:47.038Z,62.17
2019-02-05T05:35:51.067Z,55.27
2019-02-05T05:37:54.929Z,61.50
2019-02-05T05:39:58.768Z,59.60
2019-02-05T05:42:02.933Z,48.23
2019-02-05T05:44:09.463Z,67.97
2019-02-05T05:46:12.335Z,54.43
2019-02-05T05:48:16.369Z,57.37
2019-02-05T05:50:21.298Z,47.53
2019-02-05T05:52:25.872Z,57.70
2019-02-05T05:54:29.794Z,57.90
2019-02-05T05:56:33.688Z,52.90
2019-02-05T05:58:37.600Z,65.43
2019-02-05T06:00:41.555Z,69.23
2019-02-05T06:02:45.991Z,56.87
2019-02-05T06:04:49.843Z,46.70
2019-02-05T06:06:53.995Z,54.83
2019-02-05T06:08:58.116Z,67.77
2019-02-05T06:11:01.975Z,59.80
2019-02-05T06:13:06.227Z,65.30
2019-02-05T06:15:12.413Z,49.70
2019-02-05T06:17:16.221Z,58.23
2019-02-05T06:19:20.129Z,61.73
2019-02-05T06:21:24.128Z,63.43
2019-02-05T06:23:28.016Z,65.33
2019-02-05T06:25:31.902Z,61.57
2019-02-05T06:27:35.815Z,59.67
2019-02-05T06:29:39.865Z,49.90
2019-02-05T06:31:43.973Z,62.73
2019-02-05T06:33:47.821Z,69.90
2019-02-05T06:35:51.749Z,57.60
2019-02-05T06:37:55.663Z,59.63
2019-02-05T06:39:59.543Z,60.53
2019-02-05T06:42:03.776Z,61.07
2019-02-05T06:44:07.722Z,57.63
2019-02-05T06:46:11.805Z,63.93
2019-02-05T06:48:15.674Z,60.87
2019-02-05T06:50:19.543Z,63.40
2019-02-05T06:52:23.485Z,58.27
2019-02-05T06:54:27.418Z,62.93
2019-02-05T06:56:31.258Z,64.47
2019-02-05T06:58:45.744Z,71.00
2019-02-05T07:00:40.678Z,66.60
2019-02-05T07:02:44.562Z,64.97
2019-02-05T07:04:48.440Z,72.53
2019-02-05T07:06:52.429Z,62.97
2019-02-05T07:08:56.331Z,64.57
2019-02-05T07:11:00.257Z,53.97
2019-02-05T07:13:04.171Z,56.77
2019-02-05T07:15:10.280Z,55.97
2019-02-05T07:17:14.188Z,54.47
2019-02-05T07:19:18.067Z,63.13
2019-02-05T07:21:22.441Z,65.77
2019-02-05T07:23:26.324Z,63.53
2019-02-05T07:25:30.376Z,51.37
2019-02-05T07:27:34.280Z,62.37
2019-02-05T07:29:38.449Z,67.00
2019-02-05T07:31:42.902Z,70.10
2019-02-05T07:33:46.772Z,67.93
2019-02-05T07:35:50.755Z,57.63
2019-02-05T07:37:54.641Z,65.93
2019-02-05T07:39:58.532Z,70.30
2019-02-05T07:42:02.535Z,69.70
2019-02-05T07:44:06.529Z,69.53
2019-02-05T07:46:10.417Z,76.50
2019-02-05T07:48:14.346Z,73.27
2019-02-05T07:50:20.649Z,69.20
2019-02-05T07:52:24.607Z,69.87
2019-02-05T07:54:28.627Z,81.60
2019-02-05T07:56:32.536Z,80.03
2019-02-05T07:58:36.465Z,77.93
2019-02-05T08:00:40.452Z,73.67
2019-02-05T08:02:44.403Z,79.20
2019-02-05T08:04:48.297Z,67.50
2019-02-05T08:06:52.226Z,86.87
2019-02-05T08:08:56.553Z,76.23
2019-02-05T08:11:00.459Z,70.27
2019-02-05T08:13:04.805Z,71.07
2019-02-05T08:15:11.763Z,69.53
2019-02-05T08:17:15.662Z,64.00
2019-02-05T08:19:19.569Z,66.87
2019-02-05T08:21:23.646Z,70.67
2019-02-05T08:23:27.606Z,75.20
2019-02-05T08:25:31.514Z,73.47
2019-02-05T08:27:37.245Z,71.00
2019-02-05T08:29:41.277Z,62.30
2019-02-05T08:31:45.158Z,72.20
2019-02-05T08:33:49.072Z,67.93
2019-02-05T08:35:53.030Z,64.97
2019-02-05T08:37:56.914Z,71.10
2019-02-05T08:40:00.804Z,63.77
2019-02-05T08:42:04.730Z,68.27
2019-02-05T08:44:08.639Z,61.53
2019-02-05T08:46:12.708Z,57.77
2019-02-05T08:48:16.586Z,70.53
2019-02-05T08:50:27.422Z,65.13
2019-02-05T08:52:31.680Z,71.03
2019-02-05T08:54:35.557Z,73.57
2019-02-05T08:56:39.471Z,68.57
2019-02-05T08:58:43.396Z,71.40
2019-02-05T09:00:47.883Z,65.70
2019-02-05T09:02:52.013Z,69.90
2019-02-05T09:04:55.893Z,73.20
2019-02-05T09:07:00.087Z,66.80
2019-02-05T09:09:05.517Z,66.30
2019-02-05T09:11:09.419Z,65.30
2019-02-05T09:13:13.305Z,69.00
2019-02-05T09:15:28.879Z,65.50
2019-02-05T09:17:24.405Z,69.87
2019-02-05T09:19:28.514Z,76.47
2019-02-05T09:21:32.401Z,65.17
2019-02-05T09:23:36.321Z,69.47
2019-02-05T09:25:40.376Z,63.23
2019-02-05T09:27:44.386Z,61.33
2019-02-05T09:29:48.298Z,67.43
2019-02-05T09:31:52.224Z,61.57
2019-02-05T09:33:56.136Z,58.63
2019-02-05T09:36:00.100Z,51.27
2019-02-05T09:38:03.987Z,58.43
2019-02-05T09:40:10.815Z,58.47
2019-02-05T09:42:14.751Z,66.40
2019-02-05T09:44:18.676Z,57.50
2019-02-05T09:46:22.774Z,60.10
2019-02-05T09:48:26.673Z,61.23
2019-02-05T09:50:36.776Z,60.37
2019-02-05T09:52:36.421Z,55.90
2019-02-05T09:54:40.320Z,53.40
2019-02-05T09:56:44.623Z,63.70
2019-02-05T09:58:48.559Z,54.30
2019-02-05T10:00:52.452Z,61.60
2019-02-05T10:02:56.414Z,60.90
2019-02-05T10:05:00.365Z,54.50
2019-02-05T10:07:04.358Z,58.00
2019-02-05T10:09:08.854Z,55.37
2019-02-05T10:11:12.766Z,49.20
2019-02-05T10:13:16.724Z,52.07
2019-02-05T10:15:23.703Z,46.87
2019-02-05T10:17:27.635Z,58.93
2019-02-05T10:19:31.547Z,51.57
2019-02-05T10:21:35.451Z,55.50
2019-02-05T10:23:39.380Z,53.20
2019-02-05T10:25:43.706Z,52.53
2019-02-05T10:27:47.614Z,53.07
2019-02-05T10:29:59.267Z,51.93
2019-02-05T10:31:57.186Z,49.87
2019-02-05T10:34:01.087Z,51.00
2019-02-05T10:36:05.612Z,56.43
2019-02-05T10:38:09.607Z,58.07
2019-02-05T10:40:14.539Z,57.93
2019-02-05T10:42:18.423Z,50.23
2019-02-05T10:44:22.364Z,56.00
2019-02-05T10:46:26.267Z,53.43
2019-02-05T10:48:30.212Z,53.30
2019-02-05T10:50:34.128Z,53.87
2019-02-05T10:52:38.037Z,61.77
2019-02-05T10:54:41.922Z,49.67
2019-02-05T10:56:45.869Z,43.10
2019-02-05T10:58:49.851Z,47.80
2019-02-05T11:00:53.808Z,46.20
2019-02-05T11:03:00.002Z,47.37
2019-02-05T11:05:06.369Z,42.50
2019-02-05T11:07:10.295Z,50.27
2019-02-05T11:09:14.196Z,51.40
2019-02-05T11:11:18.071Z,51.23
2019-02-05T11:13:22.033Z,49.00
2019-02-05T11:15:28.898Z,46.17
2019-02-05T11:17:32.836Z,41.87
2019-02-05T11:19:36.742Z,45.33
2019-02-05T11:21:40.719Z,45.87
2019-02-05T11:23:44.675Z,42.10
2019-02-05T11:25:48.958Z,48.27
2019-02-05T11:27:53.094Z,46.40
2019-02-05T11:29:57.002Z,50.27
2019-02-05T11:32:00.877Z,49.10
2019-02-05T11:34:05.732Z,49.13
2019-02-05T11:36:09.634Z,44.07
2019-02-05T11:38:13.546Z,41.23
2019-02-05T11:40:20.325Z,48.50
2019-02-05T11:42:24.197Z,33.03
2019-02-05T11:44:28.149Z,40.23
2019-02-05T11:46:32.085Z,49.00
2019-02-05T11:48:36.023Z,43.23
2019-02-05T11:50:39.957Z,46.63
2019-02-05T11:52:43.969Z,47.87
2019-02-05T11:54:48.302Z,37.47
2019-02-05T11:56:52.193Z,41.90
2019-02-05T11:58:56.133Z,40.13
2019-02-05T12:01:01.760Z,39.77
2019-02-05T12:03:06.158Z,43.87
2019-02-05T12:05:10.495Z,42.57
2019-02-05T12:07:14.554Z,38.37
2019-02-05T12:09:20.346Z,45.80
2019-02-05T12:11:24.244Z,42.37
2019-02-05T12:13:28.470Z,50.03
2019-02-05T12:15:32.361Z,43.73
2019-02-05T12:17:36.378Z,48.83
2019-02-05T12:19:40.345Z,47.07
2019-02-05T12:21:44.422Z,45.47
2019-02-05T12:23:48.955Z,40.07
2019-02-05T12:25:52.879Z,48.50
2019-02-05T12:27:56.819Z,43.13
2019-02-05T12:30:00.816Z,42.27
2019-02-05T12:32:04.979Z,43.70
2019-02-05T12:34:09.313Z,42.97
2019-02-05T12:36:13.275Z,39.80
2019-02-05T12:38:17.223Z,42.13
2019-02-05T12:40:21.140Z,44.30
2019-02-05T12:42:25.102Z,44.40
2019-02-05T12:44:29.053Z,47.33
2019-02-05T12:46:32.994Z,44.63
2019-02-05T12:48:36.929Z,49.23
2019-02-05T12:50:43.078Z,46.07
2019-02-05T12:52:47.022Z,45.97
2019-02-05T12:54:50.988Z,49.70
2019-02-05T12:56:55.050Z,45.70
2019-02-05T12:58:59.001Z,40.37
2019-02-05T13:01:03.234Z,44.33
2019-02-05T13:03:08.270Z,46.43
2019-02-05T13:05:12.206Z,45.80
2019-02-05T13:07:16.170Z,46.60
2019-02-05T13:09:20.143Z,45.63
2019-02-05T13:11:24.221Z,41.00
2019-02-05T13:13:28.162Z,46.57
2019-02-05T13:15:32.106Z,45.47
2019-02-05T13:17:36.074Z,52.23
2019-02-05T13:19:40.094Z,48.27
2019-02-05T13:21:44.108Z,43.97
2019-02-05T13:23:48.017Z,61.00
2019-02-05T13:25:51.952Z,45.90
2019-02-05T13:27:55.983Z,47.93
2019-02-05T13:30:04.151Z,45.67
2019-02-05T13:32:08.348Z,39.00
2019-02-05T13:34:12.407Z,46.33
2019-02-05T13:36:16.827Z,49.50
2019-02-05T13:38:20.783Z,44.87
2019-02-05T13:40:28.585Z,45.97
2019-02-05T13:42:32.587Z,47.03
2019-02-05T13:44:36.699Z,44.50
2019-02-05T13:46:40.941Z,40.50
2019-02-05T13:48:44.983Z,38.20
2019-02-05T13:50:48.957Z,39.60
2019-02-05T13:52:53.081Z,35.87
2019-02-05T13:54:57.019Z,35.93
2019-02-05T13:57:01.247Z,40.87
2019-02-05T13:59:05.242Z,36.77
2019-02-05T14:01:19.690Z,41.83
2019-02-05T14:03:14.849Z,37.63
2019-02-05T14:05:18.812Z,43.77
2019-02-05T14:07:23.041Z,38.53
2019-02-05T14:09:27.126Z,45.03
2019-02-05T14:11:31.062Z,39.97
2019-02-05T14:13:35.600Z,37.50
2019-02-05T14:15:45.587Z,40.60
2019-02-05T14:17:49.533Z,41.33
2019-02-05T14:19:53.618Z,56.73
2019-02-05T14:21:57.542Z,47.30
2019-02-05T14:24:01.485Z,48.73
2019-02-05T14:26:05.571Z,42.27
2019-02-05T14:28:09.929Z,42.90
2019-02-05T14:30:35.189Z,45.70
2019-02-05T14:32:39.407Z,41.50
2019-02-05T14:34:43.332Z,46.10
2019-02-05T14:36:47.269Z,54.03
2019-02-05T14:38:51.233Z,48.87
2019-02-05T14:40:57.323Z,42.13
2019-02-05T14:43:01.598Z,46.40
2019-02-05T14:45:09.419Z,47.88
2019-02-05T14:47:13.438Z,48.50
2019-02-05T14:49:24.470Z,44.67
2019-02-05T14:51:29.870Z,43.67
2019-02-05T14:53:36.425Z,48.17
2019-02-05T14:55:41.355Z,45.20
2019-02-05T14:57:46.281Z,43.93
2019-02-05T14:59:50.214Z,38.63
2019-02-05T15:01:55.190Z,48.13
2019-02-05T15:03:59.752Z,42.40
2019-02-05T15:06:07.493Z,48.00
2019-02-05T15:08:13.486Z,45.90
2019-02-05T15:10:20.063Z,41.53
2019-02-05T15:12:24.910Z,42.43
2019-02-05T15:14:29.161Z,38.27
2019-02-05T15:16:33.914Z,43.33
2019-02-05T15:18:38.581Z,46.60
2019-02-05T15:20:45.818Z,46.70
2019-02-05T15:22:51.024Z,34.17
2019-02-05T15:24:55.678Z,37.57
2019-02-05T15:27:00.115Z,38.27
2019-02-05T15:29:04.108Z,41.57
2019-02-05T15:31:09.519Z,40.27
2019-02-05T15:33:32.837Z,28.50
2019-02-05T15:35:39.935Z,36.60
2019-02-05T15:37:44.786Z,37.67
2019-02-05T15:39:49.626Z,36.60
2019-02-05T15:41:53.630Z,37.30
2019-02-05T15:44:00.768Z,41.80
2019-02-05T15:46:06.154Z,36.73
2019-02-05T15:48:11.599Z,41.90
2019-02-05T15:50:16.884Z,39.10
2019-02-05T15:52:21.748Z,38.73
2019-02-05T15:54:26.233Z,35.97
2019-02-05T15:56:30.287Z,42.67
2019-02-05T15:58:34.744Z,40.93
2019-02-05T16:00:39.594Z,36.87
2019-02-05T16:02:44.023Z,41.00
2019-02-05T16:04:48.648Z,36.47
2019-02-05T16:06:52.812Z,41.80
2019-02-05T16:08:57.131Z,41.50
2019-02-05T16:11:01.745Z,38.40
2019-02-05T16:13:05.881Z,42.17
2019-02-05T16:15:12.028Z,41.23
2019-02-05T16:17:15.996Z,43.03
2019-02-05T16:19:20.002Z,36.13
2019-02-05T16:21:23.970Z,42.13
2019-02-05T16:23:27.954Z,40.40
2019-02-05T16:25:32.021Z,34.97
2019-02-05T16:27:35.942Z,42.57
2019-02-05T16:29:39.877Z,39.93
2019-02-05T16:31:43.841Z,38.33
2019-02-05T16:33:47.859Z,40.33
2019-02-05T16:35:51.822Z,41.17
2019-02-05T16:37:56.290Z,43.00
2019-02-05T16:40:00.222Z,33.07
2019-02-05T16:42:04.691Z,43.57
2019-02-05T16:44:08.676Z,39.57
2019-02-05T16:46:12.594Z,40.97
2019-02-05T16:48:16.566Z,37.67
2019-02-05T16:50:23.617Z,33.93
2019-02-05T16:52:27.587Z,31.13
2019-02-05T16:54:31.569Z,36.60
2019-02-05T16:56:35.527Z,39.17
2019-02-05T16:58:39.480Z,36.83
2019-02-05T17:00:43.699Z,32.53
2019-02-05T17:02:47.682Z,30.90
2019-02-05T17:04:51.645Z,32.47
2019-02-05T17:06:55.658Z,39.00
2019-02-05T17:08:59.586Z,36.83
2019-02-05T17:11:03.533Z,35.57
2019-02-05T17:13:07.739Z,36.00
2019-02-05T17:15:13.993Z,45.83
2019-02-05T17:17:20.699Z,32.80
2019-02-05T17:19:23.700Z,35.97
2019-02-05T17:21:27.633Z,35.13
2019-02-05T17:23:31.555Z,37.37
2019-02-05T17:25:36.149Z,30.40
2019-02-05T17:27:40.462Z,38.83
2019-02-05T17:29:44.439Z,33.93
2019-02-05T17:31:48.397Z,30.50
2019-02-05T17:33:52.401Z,38.83
2019-02-05T17:35:56.346Z,30.00
2019-02-05T17:38:00.272Z,33.53
2019-02-05T17:40:05.643Z,29.70
2019-02-05T17:42:09.547Z,33.60
2019-02-05T17:44:13.475Z,28.23
2019-02-05T17:46:17.442Z,38.57
2019-02-05T17:48:21.394Z,27.63
2019-02-05T17:50:25.671Z,30.73
2019-02-05T17:52:29.633Z,29.07
2019-02-05T17:54:33.570Z,28.03
2019-02-05T17:56:37.557Z,36.23
2019-02-05T17:58:41.477Z,32.93
2019-02-05T18:00:50.006Z,35.67
2019-02-05T18:02:54.371Z,32.60
2019-02-05T18:04:58.223Z,31.33
2019-02-05T18:07:02.309Z,38.23
2019-02-05T18:09:07.788Z,27.43
2019-02-05T18:11:11.720Z,36.10
2019-02-05T18:13:16.176Z,38.90
2019-02-05T18:15:29.047Z,34.50
2019-02-05T18:17:32.957Z,39.20
2019-02-05T18:19:36.914Z,48.83
2019-02-05T18:21:40.903Z,30.03
2019-02-05T18:23:44.793Z,38.30
2019-02-05T18:25:48.673Z,27.20
2019-02-05T18:27:52.646Z,33.37
2019-02-05T18:29:56.622Z,36.80
2019-02-05T18:32:00.492Z,35.13
2019-02-05T18:34:04.437Z,29.90
2019-02-05T18:36:08.319Z,32.57
2019-02-05T18:38:15.015Z,40.73
2019-02-05T18:40:23.865Z,38.23
2019-02-05T18:42:27.778Z,41.67
2019-02-05T18:44:31.666Z,32.77
2019-02-05T18:46:35.898Z,40.83
2019-02-05T18:48:39.801Z,44.80
2019-02-05T18:50:44.248Z,41.57
2019-02-05T18:52:48.191Z,38.87
2019-02-05T18:54:52.061Z,33.20
2019-02-05T18:56:56.237Z,37.53
2019-02-05T18:59:00.178Z,34.17
2019-02-05T19:01:05.377Z,34.97
2019-02-05T19:03:15.614Z,44.07
2019-02-05T19:05:15.423Z,36.57
2019-02-05T19:07:19.698Z,35.17
2019-02-05T19:09:23.621Z,35.30
2019-02-05T19:11:27.487Z,42.90
2019-02-05T19:13:31.370Z,35.27
2019-02-05T19:15:38.146Z,33.97
2019-02-05T19:17:42.216Z,41.90
2019-02-05T19:19:46.125Z,33.50
2019-02-05T19:21:50.080Z,38.87
2019-02-05T19:23:55.496Z,31.67
2019-02-05T19:26:04.150Z,35.57
2019-02-05T19:28:08.483Z,39.70
2019-02-05T19:30:19.058Z,35.03
2019-02-05T19:32:23.729Z,49.63
2019-02-05T19:34:27.583Z,37.03
2019-02-05T19:36:31.447Z,35.70
2019-02-05T19:38:35.333Z,35.60
2019-02-05T19:40:39.284Z,41.30
2019-02-05T19:42:43.400Z,34.70
2019-02-05T19:44:48.818Z,34.40
2019-02-05T19:46:54.258Z,33.07
2019-02-05T19:49:00.194Z,34.97
2019-02-05T19:51:04.739Z,34.93
2019-02-05T19:53:08.578Z,33.53
2019-02-05T19:55:12.592Z,33.13
2019-02-05T19:57:16.878Z,33.37
2019-02-05T19:59:20.833Z,37.70
2019-02-05T20:01:24.739Z,34.43
2019-02-05T20:03:38.414Z,31.70
2019-02-05T20:05:34.152Z,37.63
2019-02-05T20:07:38.040Z,35.93
2019-02-05T20:09:42.461Z,32.03
2019-02-05T20:11:46.430Z,36.70
2019-02-05T20:13:50.290Z,34.77
2019-02-05T20:15:54.196Z,35.57
2019-02-05T20:17:58.082Z,36.67
2019-02-05T20:20:01.930Z,34.37
2019-02-05T20:22:06.098Z,41.93
2019-02-05T20:24:09.977Z,39.93
2019-02-05T20:26:13.826Z,48.73
2019-02-05T20:28:17.836Z,43.57
2019-02-05T20:30:23.105Z,32.77
2019-02-05T20:32:30.841Z,42.03
2019-02-05T20:34:35.758Z,40.03
2019-02-05T20:36:39.680Z,40.23
2019-02-05T20:38:43.598Z,44.83
2019-02-05T20:40:47.462Z,36.33
2019-02-05T20:42:51.413Z,43.13
2019-02-05T20:44:55.393Z,48.57
2019-02-05T20:46:59.254Z,36.53
2019-02-05T20:49:04.043Z,47.60
2019-02-05T20:51:07.950Z,48.23
2019-02-05T20:53:14.141Z,42.30
2019-02-05T20:55:22.501Z,42.73
2019-02-05T20:57:26.420Z,46.83
2019-02-05T20:59:31.461Z,33.83
2019-02-05T21:01:35.346Z,47.20
2019-02-05T21:03:39.213Z,47.97
2019-02-05T21:05:43.113Z,40.93
2019-02-05T21:07:47.120Z,45.63
2019-02-05T21:09:51.403Z,45.53
2019-02-05T21:11:55.262Z,38.07
2019-02-05T21:13:59.220Z,41.40
2019-02-05T21:16:03.096Z,46.60
2019-02-05T21:18:08.623Z,47.57
2019-02-05T21:20:28.932Z,41.50
2019-02-05T21:22:23.706Z,45.17
2019-02-05T21:24:27.597Z,32.93
2019-02-05T21:26:31.463Z,47.63
2019-02-05T21:28:36.848Z,46.17
2019-02-05T21:30:41.510Z,40.23
2019-02-05T21:32:47.978Z,40.27
2019-02-05T21:34:52.275Z,42.00
2019-02-05T21:36:56.151Z,43.60
2019-02-05T21:39:00.006Z,34.90
2019-02-05T21:41:05.017Z,37.40
2019-02-05T21:43:08.878Z,43.37
2019-02-05T21:45:15.563Z,33.30
2019-02-05T21:47:19.485Z,31.47
2019-02-05T21:49:27.775Z,33.90
2019-02-05T21:51:40.439Z,32.10
2019-02-05T21:53:42.803Z,35.90
2019-02-05T21:55:48.101Z,32.43
2019-02-05T21:57:57.362Z,34.53
2019-02-05T22:00:01.224Z,39.87
2019-02-05T22:02:06.281Z,34.93
2019-02-05T22:04:10.604Z,37.93
2019-02-05T22:06:14.531Z,36.30
2019-02-05T22:08:18.550Z,36.17
2019-02-05T22:10:22.403Z,30.70
2019-02-05T22:12:26.310Z,45.67
2019-02-05T22:14:30.213Z,34.73
2019-02-05T22:16:36.514Z,37.53
2019-02-05T22:18:40.817Z,39.63
2019-02-05T22:20:45.331Z,33.47
2019-02-05T22:22:50.934Z,32.70
2019-02-05T22:24:57.568Z,32.87
2019-02-05T22:27:03.619Z,37.67
2019-02-05T22:29:07.519Z,40.53
2019-02-05T22:31:11.406Z,39.27
2019-02-05T22:33:18.265Z,30.40
2019-02-05T22:35:24.310Z,38.43
2019-02-05T22:37:28.558Z,35.63
2019-02-05T22:39:32.488Z,41.13
2019-02-05T22:41:36.477Z,41.40
2019-02-05T22:43:41.421Z,35.60
2019-02-05T22:45:45.425Z,35.13
2019-02-05T22:47:49.946Z,33.73
2019-02-05T22:49:54.361Z,32.83
2019-02-05T22:51:58.202Z,34.97
2019-02-05T22:54:02.098Z,35.27
2019-02-05T22:56:05.964Z,40.27
2019-02-05T22:58:10.114Z,37.53
2019-02-05T23:00:43.040Z,34.53
2019-02-05T23:02:47.435Z,36.97
2019-02-05T23:04:54.262Z,31.03
2019-02-05T23:07:01.326Z,36.37
2019-02-05T23:09:23.426Z,38.60
2019-02-05T23:11:32.995Z,42.93
2019-02-05T23:13:36.885Z,35.93
2019-02-05T23:15:40.789Z,37.53
2019-02-05T23:17:45.338Z,37.83
2019-02-05T23:19:49.281Z,37.67
2019-02-05T23:21:53.225Z,40.93
2019-02-05T23:24:00.916Z,34.23
2019-02-05T23:26:05.526Z,37.53
2019-02-05T23:28:09.937Z,41.97
2019-02-05T23:30:17.211Z,33.30
2019-02-05T23:32:21.104Z,37.87
2019-02-05T23:34:25.055Z,38.63
2019-02-05T23:36:29.003Z,39.77
2019-02-05T23:38:33.190Z,35.27
2019-02-05T23:40:37.092Z,38.10
2019-02-05T23:42:40.942Z,35.27
2019-02-05T23:44:44.838Z,47.17
2019-02-05T23:46:49.055Z,37.27
2019-02-05T23:48:54.941Z,44.93
2019-02-05T23:50:58.865Z,35.70
2019-02-05T23:53:02.843Z,34.97
2019-02-05T23:55:09.795Z,32.27
2019-02-05T23:57:13.726Z,39.57
2019-02-05T23:59:17.586Z,35.07
